createdAt,value
2023-01-15T00:00:19.165Z,6.06
2023-01-15T00:02:45.623Z,6.08
2023-01-15T00:05:12.186Z,6.09
2023-01-15T00:07:38.816Z,6.13
2023-01-15T00:10:05.891Z,6.16
2023-01-15T00:12:32.427Z,6.14
2023-01-15T00:14:58.809Z,6.13
2023-01-15T00:17:25.340Z,6.09
2023-01-15T00:19:51.821Z,6.11
2023-01-15T00:22:18.706Z,6.07
2023-01-15T00:25:03.602Z,6.05
2023-01-15T00:27:38.617Z,6.00
2023-01-15T00:30:06.990Z,6.00
2023-01-15T00:32:33.552Z,5.99
2023-01-15T00:35:00.386Z,5.96
2023-01-15T00:37:27.351Z,5.93
2023-01-15T00:39:53.845Z,5.92
2023-01-15T00:42:20.209Z,5.92
2023-01-15T00:44:47.358Z,5.93
2023-01-15T00:47:15.171Z,5.92
2023-01-15T00:49:42.426Z,5.90
2023-01-15T00:52:10.104Z,5.89
2023-01-15T00:54:36.481Z,5.88
2023-01-15T00:57:03.174Z,5.88
2023-01-15T00:59:29.612Z,5.90
2023-01-15T01:01:56.117Z,5.91
2023-01-15T01:04:22.542Z,5.92
2023-01-15T01:06:48.928Z,5.89
2023-01-15T01:09:16.666Z,5.92
2023-01-15T01:11:43.450Z,5.91
2023-01-15T01:14:11.888Z,5.93
2023-01-15T01:16:40.798Z,5.91
2023-01-15T01:19:14.174Z,5.86
2023-01-15T01:21:42.290Z,5.85
2023-01-15T01:24:12.381Z,5.85
2023-01-15T01:26:39.205Z,5.84
2023-01-15T01:29:05.682Z,5.90
2023-01-15T01:31:32.309Z,5.87
2023-01-15T01:33:59.589Z,5.86
2023-01-15T01:36:29.526Z,5.88
2023-01-15T01:38:56.135Z,5.85
2023-01-15T01:41:23.171Z,5.81
2023-01-15T01:44:04.948Z,5.80
2023-01-15T01:46:34.058Z,5.77
2023-01-15T01:49:06.445Z,5.77
2023-01-15T01:51:39.577Z,5.79
2023-01-15T01:54:07.600Z,5.76
2023-01-15T01:56:36.028Z,5.74
2023-01-15T01:59:03.702Z,5.75
2023-01-15T02:01:30.614Z,5.77
2023-01-15T02:03:57.775Z,5.82
2023-01-15T02:06:26.324Z,5.76
2023-01-15T02:08:52.987Z,5.72
2023-01-15T02:11:21.897Z,5.76
2023-01-15T02:14:02.712Z,5.75
2023-01-15T02:16:56.456Z,5.75
2023-01-15T02:19:41.447Z,5.73
2023-01-15T02:22:23.174Z,5.71
2023-01-15T02:25:10.472Z,5.73
2023-01-15T02:27:42.217Z,5.73
2023-01-15T02:30:32.101Z,5.74
2023-01-15T02:33:08.035Z,5.70
2023-01-15T02:35:37.204Z,5.69
2023-01-15T02:38:08.281Z,5.68
2023-01-15T02:40:37.155Z,5.67
2023-01-15T02:43:05.746Z,5.60
2023-01-15T02:45:36.907Z,5.62
2023-01-15T02:48:12.196Z,5.63
2023-01-15T02:50:44.400Z,5.66
2023-01-15T02:53:17.890Z,5.62
2023-01-15T02:55:49.447Z,5.56
2023-01-15T02:58:24.187Z,5.56
2023-01-15T03:00:55.251Z,5.55
2023-01-15T03:03:31.208Z,5.50
2023-01-15T03:06:04.181Z,5.47
2023-01-15T03:08:31.160Z,5.48
2023-01-15T03:11:07.996Z,5.50
2023-01-15T03:13:44.564Z,5.49
2023-01-15T03:16:40.072Z,5.53
2023-01-15T03:19:15.484Z,5.54
2023-01-15T03:22:04.942Z,5.53
2023-01-15T03:24:43.778Z,5.53
2023-01-15T03:27:10.994Z,5.59
2023-01-15T03:29:44.969Z,5.59
2023-01-15T03:32:11.790Z,5.61
2023-01-15T03:34:43.704Z,5.60
2023-01-15T03:37:10.773Z,5.56
2023-01-15T03:39:37.394Z,5.53
2023-01-15T03:42:34.855Z,5.50
2023-01-15T03:45:18.578Z,5.46
2023-01-15T03:48:05.311Z,5.38
2023-01-15T03:50:34.778Z,5.36
2023-01-15T03:53:15.779Z,5.32
2023-01-15T03:55:45.153Z,5.34
2023-01-15T03:58:18.718Z,5.36
2023-01-15T04:00:51.247Z,5.34
2023-01-15T04:03:20.271Z,5.34
2023-01-15T04:05:48.657Z,5.32
2023-01-15T04:08:17.994Z,5.33
2023-01-15T04:10:55.942Z,5.36
2023-01-15T04:13:23.438Z,5.35
2023-01-15T04:15:50.278Z,5.36
2023-01-15T04:18:16.819Z,5.32
2023-01-15T04:20:43.706Z,5.28
2023-01-15T04:23:10.192Z,5.27
2023-01-15T04:25:37.177Z,5.29
2023-01-15T04:28:03.745Z,5.32
2023-01-15T04:30:30.184Z,5.36
2023-01-15T04:32:56.753Z,5.35
2023-01-15T04:35:23.183Z,5.33
2023-01-15T04:37:49.550Z,5.35
2023-01-15T04:40:34.579Z,5.36
2023-01-15T04:43:19.953Z,5.34
2023-01-15T04:45:46.504Z,5.30
2023-01-15T04:48:13.095Z,5.27
2023-01-15T04:50:40.539Z,5.34
2023-01-15T04:53:07.139Z,5.29
2023-01-15T04:55:33.576Z,5.24
2023-01-15T04:57:59.942Z,5.21
2023-01-15T05:00:26.342Z,5.20
2023-01-15T05:02:52.769Z,5.21
2023-01-15T05:05:19.362Z,5.22
2023-01-15T05:07:45.725Z,5.22
2023-01-15T05:10:12.290Z,5.27
2023-01-15T05:12:38.751Z,5.30
2023-01-15T05:15:05.867Z,5.25
2023-01-15T05:17:33.238Z,5.24
2023-01-15T05:19:59.779Z,5.22
2023-01-15T05:22:26.300Z,5.23
2023-01-15T05:24:52.676Z,5.24
2023-01-15T05:27:21.463Z,5.28
2023-01-15T05:29:47.979Z,5.27
2023-01-15T05:32:14.474Z,5.20
2023-01-15T05:34:40.959Z,5.17
2023-01-15T05:37:07.450Z,5.13
2023-01-15T05:39:33.988Z,5.11
2023-01-15T05:42:00.414Z,5.08
2023-01-15T05:44:29.705Z,5.04
2023-01-15T05:46:59.146Z,5.04
2023-01-15T05:49:27.624Z,5.03
2023-01-15T05:51:55.041Z,5.00
2023-01-15T05:54:26.607Z,5.01
2023-01-15T05:56:53.754Z,5.02
2023-01-15T05:59:23.419Z,4.98
2023-01-15T06:01:50.167Z,4.94
2023-01-15T06:04:21.517Z,4.92
2023-01-15T06:06:49.953Z,4.90
2023-01-15T06:09:16.971Z,4.93
2023-01-15T06:11:43.465Z,4.97
2023-01-15T06:14:12.212Z,4.99
2023-01-15T06:16:41.189Z,4.95
2023-01-15T06:19:09.020Z,4.94
2023-01-15T06:21:36.341Z,4.92
2023-01-15T06:24:04.109Z,4.87
2023-01-15T06:26:30.595Z,4.85
2023-01-15T06:28:57.118Z,4.77
2023-01-15T06:31:26.778Z,4.73
2023-01-15T06:33:53.835Z,4.68
2023-01-15T06:36:22.710Z,4.64
2023-01-15T06:38:50.114Z,4.61
2023-01-15T06:41:38.042Z,4.51
2023-01-15T06:44:23.440Z,4.40
2023-01-15T06:47:09.318Z,4.35
2023-01-15T06:49:37.221Z,4.29
2023-01-15T06:52:04.891Z,4.25
2023-01-15T06:54:31.740Z,4.17
2023-01-15T06:56:58.287Z,4.08
2023-01-15T06:59:24.760Z,4.01
2023-01-15T07:01:51.234Z,3.94
2023-01-15T07:04:17.751Z,3.86
2023-01-15T07:06:44.211Z,3.83
2023-01-15T07:09:10.820Z,3.86
2023-01-15T07:11:49.411Z,3.90
2023-01-15T07:14:21.269Z,3.92
2023-01-15T07:16:48.562Z,3.91
2023-01-15T07:19:15.564Z,3.92
2023-01-15T07:21:42.865Z,3.94
2023-01-15T07:24:13.999Z,3.95
2023-01-15T07:26:41.692Z,3.91
2023-01-15T07:29:08.158Z,3.94
2023-01-15T07:31:34.958Z,3.95
2023-01-15T07:34:01.465Z,3.91
2023-01-15T07:36:27.897Z,3.91
2023-01-15T07:38:54.369Z,3.91
2023-01-15T07:41:39.689Z,3.89
2023-01-15T07:44:25.134Z,3.88
2023-01-15T07:47:09.970Z,3.92
2023-01-15T07:49:51.250Z,3.94
2023-01-15T07:52:20.881Z,3.94
2023-01-15T07:54:48.833Z,3.91
2023-01-15T07:57:19.004Z,3.87
2023-01-15T07:59:45.388Z,3.89
2023-01-15T08:02:13.053Z,3.90
2023-01-15T08:04:40.144Z,3.95
2023-01-15T08:07:06.651Z,3.97
2023-01-15T08:09:33.188Z,3.96
2023-01-15T08:12:19.387Z,3.99
2023-01-15T08:15:05.045Z,4.03
2023-01-15T08:17:38.084Z,4.06
2023-01-15T08:20:06.296Z,4.08
2023-01-15T08:22:33.300Z,4.06
2023-01-15T08:24:59.795Z,4.12
2023-01-15T08:27:27.067Z,4.13
2023-01-15T08:29:53.516Z,4.13
2023-01-15T08:32:20.306Z,4.17
2023-01-15T08:34:46.752Z,4.21
2023-01-15T08:37:13.346Z,4.26
2023-01-15T08:39:39.733Z,4.29
2023-01-15T08:42:06.207Z,4.39
2023-01-15T08:44:33.086Z,4.44
2023-01-15T08:46:59.812Z,4.55
2023-01-15T08:49:26.303Z,4.67
2023-01-15T08:51:52.967Z,4.86
2023-01-15T08:54:21.279Z,5.10
2023-01-15T08:56:48.344Z,5.35
2023-01-15T08:59:15.014Z,5.69
2023-01-15T09:01:42.029Z,6.14
2023-01-15T09:04:13.300Z,6.59
2023-01-15T09:06:39.747Z,6.85
2023-01-15T09:09:06.211Z,7.07
2023-01-15T09:11:32.732Z,7.19
2023-01-15T09:13:59.115Z,7.02
2023-01-15T09:16:27.634Z,6.76
2023-01-15T09:18:54.516Z,6.20
2023-01-15T09:21:20.988Z,5.76
2023-01-15T09:23:47.371Z,5.60
2023-01-15T09:26:43.304Z,5.56
2023-01-15T09:29:10.391Z,5.59
2023-01-15T09:31:36.813Z,5.65
2023-01-15T09:34:03.583Z,5.74
2023-01-15T09:36:32.956Z,5.82
2023-01-15T09:39:01.007Z,5.88
2023-01-15T09:42:05.134Z,5.97
2023-01-15T09:44:50.326Z,5.88
2023-01-15T09:47:19.713Z,5.84
2023-01-15T09:50:21.598Z,5.86
2023-01-15T09:53:02.361Z,5.90
2023-01-15T09:55:31.664Z,5.90
2023-01-15T09:58:01.545Z,5.84
2023-01-15T10:00:34.719Z,5.79
2023-01-15T10:03:21.395Z,5.80
2023-01-15T10:05:53.767Z,5.80
2023-01-15T10:08:24.490Z,5.84
2023-01-15T10:10:56.546Z,5.95
2023-01-15T10:13:55.971Z,6.21
2023-01-15T10:16:25.085Z,6.52
2023-01-15T10:18:52.825Z,6.63
2023-01-15T10:21:30.123Z,6.81
2023-01-15T10:24:05.738Z,6.85
2023-01-15T10:27:05.230Z,7.18
2023-01-15T10:29:54.456Z,7.44
2023-01-15T10:33:00.985Z,7.44
2023-01-15T10:35:40.531Z,7.34
2023-01-15T10:38:28.713Z,7.14
2023-01-15T10:41:10.357Z,6.94
2023-01-15T10:43:57.429Z,6.74
2023-01-15T10:46:27.588Z,6.60
2023-01-15T10:49:03.808Z,6.50
2023-01-15T10:51:37.423Z,6.60
2023-01-15T10:54:29.874Z,6.71
2023-01-15T10:58:01.876Z,6.74
2023-01-15T11:00:37.633Z,6.69
2023-01-15T11:03:11.842Z,6.67
2023-01-15T11:05:38.895Z,6.74
2023-01-15T11:08:58.422Z,6.90
2023-01-15T11:10:59.334Z,6.92
2023-01-15T11:13:45.120Z,6.85
2023-01-15T11:16:44.840Z,6.80
2023-01-15T11:19:38.353Z,6.73
2023-01-15T11:22:17.507Z,6.68
2023-01-15T11:24:52.032Z,6.61
2023-01-15T11:27:22.536Z,6.62
2023-01-15T11:29:54.753Z,6.67
2023-01-15T11:32:31.961Z,6.71
2023-01-15T11:35:13.659Z,6.67
2023-01-15T11:37:40.059Z,6.61
2023-01-15T11:40:18.664Z,6.55
2023-01-15T11:43:08.705Z,6.50
2023-01-15T11:46:04.501Z,6.50
2023-01-15T11:48:53.834Z,6.41
2023-01-15T11:51:20.408Z,6.37
2023-01-15T11:53:52.127Z,6.38
2023-01-15T11:56:23.878Z,6.33
2023-01-15T11:58:53.015Z,6.38
2023-01-15T12:01:46.119Z,6.48
2023-01-15T12:04:47.113Z,6.47
2023-01-15T12:07:14.354Z,6.42
2023-01-15T12:09:47.901Z,6.46
2023-01-15T12:12:34.138Z,6.48
2023-01-15T12:15:18.556Z,6.46
2023-01-15T12:18:14.089Z,6.38
2023-01-15T12:21:12.365Z,6.29
2023-01-15T12:24:00.046Z,6.14
2023-01-15T12:26:34.555Z,6.06
2023-01-15T12:29:14.962Z,5.82
2023-01-15T12:31:50.798Z,5.72
2023-01-15T12:34:29.147Z,5.67
2023-01-15T12:37:07.316Z,5.71
2023-01-15T12:39:46.261Z,5.72
2023-01-15T12:42:36.529Z,5.69
2023-01-15T12:45:08.555Z,5.71
2023-01-15T12:47:42.829Z,5.69
2023-01-15T12:50:36.877Z,5.59
2023-01-15T12:53:39.171Z,5.50
2023-01-15T12:56:15.283Z,5.44
2023-01-15T12:58:53.324Z,5.46
2023-01-15T13:01:42.487Z,5.48
2023-01-15T13:04:18.762Z,5.45
2023-01-15T13:06:51.295Z,5.48
2023-01-15T13:09:20.699Z,5.50
2023-01-15T13:11:47.144Z,5.51
2023-01-15T13:14:18.505Z,5.52
2023-01-15T13:16:57.996Z,5.55
2023-01-15T13:19:46.492Z,5.60
2023-01-15T13:22:22.668Z,5.62
2023-01-15T13:24:59.839Z,5.63
2023-01-15T13:27:38.437Z,5.60
2023-01-15T13:30:16.709Z,5.64
2023-01-15T13:32:48.576Z,5.67
2023-01-15T13:35:36.068Z,5.66
2023-01-15T13:38:08.499Z,5.65
2023-01-15T13:40:39.922Z,5.65
2023-01-15T13:43:09.627Z,5.68
2023-01-15T13:45:42.924Z,5.73
2023-01-15T13:48:16.950Z,5.74
2023-01-15T13:50:53.143Z,5.73
2023-01-15T13:53:44.401Z,5.77
2023-01-15T13:56:15.207Z,5.78
2023-01-15T13:58:57.017Z,5.75
2023-01-15T14:01:26.314Z,5.71
2023-01-15T14:04:04.167Z,5.67
2023-01-15T14:06:41.914Z,5.66
2023-01-15T14:09:30.000Z,5.63
2023-01-15T14:12:33.953Z,5.61
2023-01-15T14:15:19.291Z,5.60
2023-01-15T14:17:57.701Z,5.62
2023-01-15T14:20:57.344Z,5.64
2023-01-15T14:23:35.886Z,5.57
2023-01-15T14:26:41.705Z,5.51
2023-01-15T14:29:32.885Z,5.51
2023-01-15T14:32:21.075Z,5.52
2023-01-15T14:34:56.062Z,5.41
2023-01-15T14:37:27.735Z,4.99
2023-01-15T14:39:58.758Z,4.68
2023-01-15T14:42:49.747Z,4.62
2023-01-15T14:45:33.341Z,4.67
2023-01-15T14:48:02.714Z,4.73
2023-01-15T14:50:40.461Z,4.81
2023-01-15T14:53:16.043Z,4.92
2023-01-15T14:56:20.416Z,5.03
2023-01-15T14:59:43.925Z,5.07
2023-01-15T15:02:36.244Z,5.15
2023-01-15T15:05:08.966Z,5.18
2023-01-15T15:07:53.035Z,5.22
2023-01-15T15:10:25.660Z,5.28
2023-01-15T15:13:23.160Z,5.29
2023-01-15T15:16:04.363Z,5.32
2023-01-15T15:18:39.111Z,5.32
2023-01-15T15:21:13.292Z,5.35
2023-01-15T15:23:47.990Z,5.32
2023-01-15T15:26:26.327Z,5.28
2023-01-15T15:29:17.504Z,5.25
2023-01-15T15:31:49.652Z,5.25
2023-01-15T15:34:29.991Z,5.20
2023-01-15T15:37:01.291Z,5.20
2023-01-15T15:39:46.756Z,5.18
2023-01-15T15:42:43.686Z,5.19
2023-01-15T15:45:37.215Z,5.14
2023-01-15T15:48:32.739Z,5.07
2023-01-15T15:50:59.898Z,5.11
2023-01-15T15:53:26.344Z,5.12
2023-01-15T15:55:56.369Z,5.11
2023-01-15T15:58:38.486Z,5.09
2023-01-15T16:01:05.574Z,5.03
2023-01-15T16:03:33.261Z,4.96
2023-01-15T16:06:04.783Z,4.93
2023-01-15T16:08:35.993Z,4.90
2023-01-15T16:11:06.558Z,4.89
2023-01-15T16:13:38.045Z,4.85
2023-01-15T16:16:08.209Z,4.83
2023-01-15T16:18:36.345Z,4.79
2023-01-15T16:21:03.186Z,4.78
2023-01-15T16:23:30.952Z,4.77
2023-01-15T16:25:57.431Z,4.76
2023-01-15T16:28:35.848Z,4.79
2023-01-15T16:31:02.931Z,4.79
2023-01-15T16:33:29.962Z,4.82
2023-01-15T16:36:04.479Z,4.85
2023-01-15T16:38:40.829Z,4.85
2023-01-15T16:41:18.931Z,4.78
2023-01-15T16:43:57.255Z,4.57
2023-01-15T16:46:27.569Z,4.32
2023-01-15T16:49:21.009Z,4.12
2023-01-15T16:51:48.239Z,3.96
2023-01-15T16:54:31.074Z,3.92
2023-01-15T16:57:23.667Z,3.90
2023-01-15T17:00:02.641Z,3.92
2023-01-15T17:02:35.340Z,3.95
2023-01-15T17:05:23.926Z,3.98
2023-01-15T17:07:51.978Z,3.99
2023-01-15T17:10:28.004Z,4.08
2023-01-15T17:12:58.270Z,4.25
2023-01-15T17:15:27.726Z,4.44
2023-01-15T17:17:55.600Z,4.58
2023-01-15T17:20:27.649Z,4.58
2023-01-15T17:22:55.168Z,4.55
2023-01-15T17:25:26.095Z,4.54
2023-01-15T17:27:56.010Z,4.57
2023-01-15T17:30:30.636Z,4.61
2023-01-15T17:32:58.661Z,4.61
2023-01-15T17:35:29.324Z,4.60
2023-01-15T17:37:56.211Z,4.54
2023-01-15T17:40:23.397Z,4.53
2023-01-15T17:42:50.492Z,4.52
2023-01-15T17:45:20.951Z,4.51
2023-01-15T17:47:47.464Z,4.51
2023-01-15T17:50:14.570Z,4.52
2023-01-15T17:52:42.710Z,4.51
2023-01-15T17:55:30.781Z,4.50
2023-01-15T17:58:16.699Z,4.47
2023-01-15T18:01:01.987Z,4.45
2023-01-15T18:03:47.724Z,4.45
2023-01-15T18:06:16.080Z,4.45
2023-01-15T18:08:47.717Z,4.47
2023-01-15T18:11:14.218Z,4.45
2023-01-15T18:13:43.474Z,4.43
2023-01-15T18:16:10.670Z,4.37
2023-01-15T18:18:37.290Z,4.29
2023-01-15T18:21:04.055Z,4.25
2023-01-15T18:23:34.342Z,4.22
2023-01-15T18:26:04.821Z,4.17
2023-01-15T18:28:32.846Z,4.16
2023-01-15T18:30:59.428Z,4.13
2023-01-15T18:33:25.849Z,4.10
2023-01-15T18:36:05.894Z,4.07
2023-01-15T18:38:37.777Z,4.07
2023-01-15T18:41:44.550Z,4.09
2023-01-15T18:44:32.943Z,4.13
2023-01-15T18:47:05.327Z,4.15
2023-01-15T18:49:32.168Z,4.14
2023-01-15T18:52:17.550Z,4.13
2023-01-15T18:54:44.047Z,4.12
2023-01-15T18:57:10.840Z,4.12
2023-01-15T18:59:37.295Z,4.09
2023-01-15T19:02:04.809Z,4.07
2023-01-15T19:04:31.288Z,4.00
2023-01-15T19:06:58.199Z,3.96
2023-01-15T19:09:24.652Z,3.92
2023-01-15T19:11:52.327Z,3.86
2023-01-15T19:14:38.145Z,3.81
2023-01-15T19:17:23.088Z,3.78
2023-01-15T19:19:49.507Z,3.73
2023-01-15T19:22:34.856Z,3.70
2023-01-15T19:25:01.327Z,3.64
2023-01-15T19:27:27.790Z,3.59
2023-01-15T19:29:54.256Z,3.57
2023-01-15T19:32:20.621Z,3.57
2023-01-15T19:34:47.363Z,3.55
2023-01-15T19:37:13.837Z,3.51
2023-01-15T19:39:40.179Z,3.49
2023-01-15T19:42:25.269Z,3.46
2023-01-15T19:45:10.162Z,3.45
2023-01-15T19:47:58.393Z,3.45
2023-01-15T19:50:36.902Z,3.39
2023-01-15T19:53:03.608Z,3.35
2023-01-15T19:55:31.699Z,3.37
2023-01-15T19:58:05.396Z,3.34
2023-01-15T20:00:34.912Z,3.30
2023-01-15T20:03:03.974Z,3.26
2023-01-15T20:05:32.492Z,3.22
2023-01-15T20:07:59.176Z,3.17
2023-01-15T20:10:27.305Z,3.15
2023-01-15T20:13:12.501Z,3.12
2023-01-15T20:15:41.065Z,3.14
2023-01-15T20:18:07.454Z,3.10
2023-01-15T20:20:34.478Z,3.07
2023-01-15T20:23:01.726Z,3.05
2023-01-15T20:25:29.388Z,3.03
2023-01-15T20:27:57.904Z,3.00
2023-01-15T20:30:26.317Z,2.98
2023-01-15T20:32:55.051Z,2.96
2023-01-15T20:35:27.436Z,2.94
2023-01-15T20:37:53.865Z,2.92
2023-01-15T20:40:23.135Z,2.89
2023-01-15T20:43:08.162Z,2.86
2023-01-15T20:45:34.603Z,2.84
2023-01-15T20:48:13.548Z,2.79
2023-01-15T20:51:01.133Z,2.82
2023-01-15T20:53:35.568Z,2.80
2023-01-15T20:56:03.204Z,2.77
2023-01-15T20:58:29.814Z,2.75
2023-01-15T21:01:03.259Z,2.77
2023-01-15T21:03:29.909Z,2.78
2023-01-15T21:05:57.783Z,2.79
2023-01-15T21:08:24.302Z,2.73
2023-01-15T21:10:54.451Z,2.75
2023-01-15T21:13:24.490Z,2.73
2023-01-15T21:15:59.832Z,2.68
2023-01-15T21:18:27.534Z,2.67
2023-01-15T21:20:54.384Z,2.70
2023-01-15T21:23:21.231Z,2.82
2023-01-15T21:25:47.755Z,2.88
2023-01-15T21:28:14.596Z,2.94
2023-01-15T21:30:44.801Z,3.02
2023-01-15T21:33:11.706Z,3.09
2023-01-15T21:35:40.213Z,3.13
2023-01-15T21:38:08.274Z,3.19
2023-01-15T21:40:36.687Z,3.24
2023-01-15T21:43:22.089Z,3.27
2023-01-15T21:45:50.719Z,3.27
2023-01-15T21:48:18.710Z,3.27
2023-01-15T21:50:45.387Z,3.29
2023-01-15T21:53:12.012Z,3.31
2023-01-15T21:55:38.536Z,3.34
2023-01-15T21:58:05.033Z,3.37
2023-01-15T22:00:31.433Z,3.40
2023-01-15T22:02:58.574Z,3.45
2023-01-15T22:05:25.084Z,3.47
2023-01-15T22:07:51.522Z,3.54
2023-01-15T22:10:18.529Z,3.59
2023-01-15T22:12:45.081Z,3.63
2023-01-15T22:15:12.272Z,3.66
2023-01-15T22:17:38.790Z,3.67
2023-01-15T22:20:07.055Z,3.67
2023-01-15T22:22:36.311Z,3.68
2023-01-15T22:25:05.256Z,3.67
2023-01-15T22:27:34.532Z,3.67
2023-01-15T22:30:01.244Z,3.69
2023-01-15T22:32:27.703Z,3.69
2023-01-15T22:34:54.079Z,3.68
2023-01-15T22:37:20.573Z,3.71
2023-01-15T22:39:47.098Z,3.70
2023-01-15T22:42:27.302Z,3.69
2023-01-15T22:44:56.019Z,3.70
2023-01-15T22:47:23.203Z,3.72
2023-01-15T22:49:50.042Z,3.73
2023-01-15T22:52:17.344Z,3.74
2023-01-15T22:54:45.153Z,3.75
2023-01-15T22:57:12.948Z,3.76
2023-01-15T22:59:39.434Z,3.78
2023-01-15T23:02:06.687Z,3.78
2023-01-15T23:04:33.282Z,3.79
2023-01-15T23:06:59.818Z,3.80
2023-01-15T23:09:26.380Z,3.83
2023-01-15T23:11:52.940Z,3.86
2023-01-15T23:14:21.397Z,3.86
2023-01-15T23:16:47.989Z,3.88
2023-01-15T23:19:14.565Z,3.88
2023-01-15T23:21:41.775Z,3.88
2023-01-15T23:24:09.175Z,3.89
2023-01-15T23:26:36.281Z,3.92
2023-01-15T23:29:03.110Z,3.92
2023-01-15T23:31:29.748Z,3.94
2023-01-15T23:33:56.334Z,3.98
2023-01-15T23:36:23.654Z,3.99
2023-01-15T23:38:50.112Z,3.98
2023-01-15T23:41:19.653Z,3.97
2023-01-15T23:44:04.773Z,3.98
2023-01-15T23:46:37.567Z,3.98
2023-01-15T23:49:05.427Z,3.98
2023-01-15T23:51:32.543Z,3.97
2023-01-15T23:53:59.888Z,3.97
2023-01-15T23:56:27.134Z,3.97
2023-01-15T23:58:53.790Z,3.96
